createdAt,value
2017-10-18T16:38:03.000Z,25.17
2017-10-18T16:38:52.000Z,24.76
2017-10-18T16:39:40.000Z,24.71
2017-10-18T16:40:28.000Z,24.68
2017-10-18T16:41:17.000Z,24.69
2017-10-18T16:42:53.000Z,24.42
2017-10-18T16:43:42.000Z,24.42
2017-10-18T16:44:30.000Z,24.35
2017-10-18T16:45:19.000Z,24.47
2017-10-18T16:46:07.000Z,24.58
2017-10-18T16:46:55.000Z,24.62
2017-10-18T16:47:44.000Z,24.64
2017-10-18T16:48:32.000Z,24.62
2017-10-18T16:49:21.000Z,24.77
2017-10-18T16:50:09.000Z,24.75
2017-10-18T16:50:57.000Z,24.84
2017-10-18T16:51:46.000Z,24.86
2017-10-18T16:52:34.000Z,24.86
2017-10-18T16:53:22.000Z,24.87
2017-10-18T16:54:11.000Z,24.97
2017-10-18T16:54:59.000Z,25.01
2017-10-18T16:55:48.000Z,24.92
2017-10-18T16:56:36.000Z,24.89
2017-10-18T16:57:24.000Z,24.97
2017-10-18T16:58:13.000Z,25.02
2017-10-18T16:59:01.000Z,24.98
2017-10-18T16:59:50.000Z,25.12
2017-10-18T17:00:38.000Z,25.01
2017-10-18T17:01:26.000Z,25.01
2017-10-18T17:02:15.000Z,24.97
2017-10-18T17:03:03.000Z,25.05
2017-10-18T17:03:51.000Z,25.01
2017-10-18T17:04:40.000Z,25.05
2017-10-18T17:05:28.000Z,25.02
2017-10-18T17:06:17.000Z,24.99
2017-10-18T17:07:05.000Z,25.05
2017-10-18T17:07:53.000Z,25.07
2017-10-18T17:08:42.000Z,25.14
2017-10-18T17:09:30.000Z,25.12
2017-10-18T17:10:19.000Z,25.07
2017-10-18T17:11:07.000Z,25.12
2017-10-18T17:11:55.000Z,25.14
2017-10-18T17:12:44.000Z,25.12
2017-10-18T17:13:32.000Z,25.23
2017-10-18T17:14:20.000Z,25.2
2017-10-18T17:15:09.000Z,25.24
2017-10-18T17:15:57.000Z,25.22
2017-10-18T17:16:46.000Z,25.27
2017-10-18T17:17:34.000Z,25.32
2017-10-18T17:18:22.000Z,25.26
2017-10-18T17:19:11.000Z,25.19
2017-10-18T17:20:48.000Z,25.24
2017-10-18T17:21:36.000Z,25.27
2017-10-18T17:22:24.000Z,25.32
2017-10-18T17:23:13.000Z,25.29
2017-10-18T17:24:01.000Z,25.27
2017-10-18T17:24:49.000Z,25.27
2017-10-18T17:25:38.000Z,25.27
2017-10-18T17:26:26.000Z,25.32
2017-10-18T17:27:15.000Z,25.37
2017-10-18T17:28:03.000Z,25.38
2017-10-18T17:28:51.000Z,25.32
2017-10-18T17:29:40.000Z,25.5
2017-10-18T17:30:28.000Z,25.54
2017-10-18T17:31:17.000Z,25.5
2017-10-18T17:32:05.000Z,25.54
2017-10-18T17:32:53.000Z,25.57
2017-10-18T17:33:42.000Z,25.54
2017-10-18T17:34:30.000Z,25.55
2017-10-18T17:35:18.000Z,25.5
2017-10-18T17:36:07.000Z,25.51
2017-10-18T17:36:55.000Z,25.55
2017-10-18T17:37:44.000Z,25.57
2017-10-18T17:38:32.000Z,25.55
2017-10-18T17:39:20.000Z,25.5
2017-10-18T17:40:09.000Z,25.47
2017-10-18T17:40:57.000Z,25.51
2017-10-18T17:41:46.000Z,25.45
2017-10-18T17:42:34.000Z,25.6
2017-10-18T17:43:22.000Z,25.6
2017-10-18T17:44:11.000Z,25.57
2017-10-18T17:44:59.000Z,25.58
2017-10-18T17:45:47.000Z,25.51
2017-10-18T17:46:36.000Z,25.52
2017-10-18T17:47:24.000Z,25.54
2017-10-18T17:48:13.000Z,25.51
2017-10-18T17:49:01.000Z,25.61
2017-10-18T17:49:49.000Z,25.54
2017-10-18T17:50:38.000Z,25.52
2017-10-18T17:51:26.000Z,25.54
2017-10-18T17:52:14.000Z,25.51
2017-10-18T17:53:03.000Z,25.57
2017-10-18T17:53:51.000Z,25.57
2017-10-18T17:54:40.000Z,25.64
